1AL0 weather

Marshall Medical Center South Heliport
Boaz, Alabama, United States

Public forecast

Using degrees Fahrenheit for public forecast. Weather courtesy of forecast.io.

Closest aviation weather report (METAR) to Marshall Medical Center South Heliport

Closest report is Albertville Regional Airport/Thomas J Brumlik Field, 4.8 nm (8.8 km) W. Retrieved UTC (0 seconds ago):

Closest aviation forecast (TAF) to Marshall Medical Center South Heliport

Closest forecast is Huntsville International Carl T Jones Field, 39.4 nm (73.0 km) NW. Retrieved 2019/10/14 18:36 UTC (1 hour ago):

TAF KHSV 141734Z 1418/1518 VRB03KT P6SM SCT060 BKN250 FM150300 VRB02KT P6SM BKN040 OVC200 FM151500 16007KT P6SM SCT015 BKN030